Buie, Arkansas
Current Conditions -  °F | °C
As of 4:53 AM on Friday 24 Oct 2014 (Local Time) from KLIT Reporting Station
Clear Clear  
Wind Chill: 49°   Ceiling: Unl
Heat Index: 49°   Visibility: 7mi
Dew Point: 46°   Wind: 3mph
Humidity: 90%   Direction: 220°SW
Pressure: 30.15"   Gusts: NA
Location:  34.2978°N, 92.5047°W
Report Text: KLIT 240953Z 22003KT 7SM CLR 09/08 A3015 RMK AO2 SLP211 T00940078
Loading
Personal Weather Stations






























Interactive Weather Map
Tropical Storm Tracking
New forecast layout! Learn more

10-Day Weather Forecast

Advertisements
Track Severe Weather on mobile